Time;durP1;ratioP1;P1;durP2;ratioP2;P2;SDS_P1;SDS_P2;PMS_P1;PMS_P2;Temp;Humidity;BMP_temperature;BMP_pressure;BME280_temperature;BME280_humidity;BME280_pressure;Samples;Min_cycle;Max_cycle;Signal;HPM_P1;HPM_P2
2023/06/05 00:01:38;;;;;;;10.45;9.43;;;;;;;;;;6306149;22;20011;-80
2023/06/05 00:04:05;;;;;;;16.48;13.35;;;;;;;;;;6305588;22;20011;-81
2023/06/05 00:06:31;;;;;;;13.75;11.77;;;;;;;;;;6278685;22;20007;-80
2023/06/05 00:08:58;;;;;;;14.18;12.57;;;;;;;;;;6278330;22;20256;-81
2023/06/05 00:11:25;;;;;;;15.93;14.38;;;;;;;;;;6252567;22;20027;-81
2023/06/05 00:13:51;;;;;;;15.57;14.05;;;;;;;;;;6252635;22;20460;-80
2023/06/05 00:16:17;;;;;;;11.70;10.55;;;;;;;;;;6305672;22;20489;-80
2023/06/05 00:18:45;;;;;;;12.80;11.48;;;;;;;;;;6252000;22;20018;-80
2023/06/05 00:21:11;;;;;;;13.35;10.52;;;;;;;;;;6252577;22;20054;-81
2023/06/05 00:23:37;;;;;;;13.65;12.38;;;;;;;;;;6278167;22;20015;-80
2023/06/05 00:26:03;;;;;;;13.50;12.35;;;;;;;;;;6277943;22;20011;-80
2023/06/05 00:28:29;;;;;;;15.10;12.65;;;;;;;;;;6277975;22;20303;-80
2023/06/05 00:30:55;;;;;;;13.07;10.68;;;;;;;;;;6305780;22;20094;-81
2023/06/05 00:33:21;;;;;;;12.35;10.90;;;;;;;;;;6277209;22;20042;-81
2023/06/05 00:35:47;;;;;;;12.27;11.00;;;;;;;;;;6252467;22;20333;-80
2023/06/05 00:38:13;;;;;;;13.30;12.10;;;;;;;;;;6278028;22;20090;-81
2023/06/05 00:40:39;;;;;;;14.07;12.68;;;;;;;;;;6277955;22;20112;-80
2023/06/05 00:43:08;;;;;;;13.18;11.80;;;;;;;;;;6277880;22;20345;-80
2023/06/05 00:45:34;;;;;;;13.68;11.90;;;;;;;;;;6305509;22;20401;-80
2023/06/05 00:48:00;;;;;;;12.63;11.20;;;;;;;;;;6277644;22;20012;-80
2023/06/05 00:50:26;;;;;;;13.80;10.50;;;;;;;;;;6252128;22;20015;-80
2023/06/05 00:52:52;;;;;;;11.73;10.02;;;;;;;;;;6277819;22;20109;-80
2023/06/05 00:55:18;;;;;;;11.88;10.73;;;;;;;;;;6252058;22;20019;-80
2023/06/05 00:57:45;;;;;;;11.93;10.50;;;;;;;;;;6277691;22;20086;-80
2023/06/05 01:00:14;;;;;;;13.05;11.60;;;;;;;;;;6277815;22;20092;-80
2023/06/05 01:02:40;;;;;;;13.70;11.80;;;;;;;;;;6251605;22;20018;-80
2023/06/05 01:05:07;;;;;;;12.32;11.23;;;;;;;;;;6305386;22;20011;-80
2023/06/05 01:07:34;;;;;;;11.98;10.45;;;;;;;;;;6305171;22;20015;-80
2023/06/05 01:10:04;;;;;;;13.27;11.75;;;;;;;;;;6305386;22;20049;-80
2023/06/05 01:12:37;;;;;;;16.92;13.20;;;;;;;;;;6252001;22;20334;-80
2023/06/05 01:15:05;;;;;;;13.93;10.77;;;;;;;;;;6304806;22;20026;-80
2023/06/05 01:17:34;;;;;;;13.38;11.88;;;;;;;;;;6251418;22;20089;-80
2023/06/05 01:20:06;;;;;;;13.98;12.10;;;;;;;;;;6277749;22;20047;-80
2023/06/05 01:22:32;;;;;;;11.60;10.50;;;;;;;;;;6277571;22;20011;-80
2023/06/05 01:24:59;;;;;;;14.10;12.65;;;;;;;;;;6277393;22;20095;-80
2023/06/05 01:27:29;;;;;;;14.95;13.45;;;;;;;;;;6251950;22;20094;-80
2023/06/05 01:30:07;;;;;;;12.23;9.88;;;;;;;;;;6305069;22;20067;-80
2023/06/05 01:32:55;;;;;;;13.10;11.60;;;;;;;;;;6277189;22;20015;-80
2023/06/05 01:35:27;;;;;;;13.52;12.07;;;;;;;;;;6305027;22;20015;-80
2023/06/05 01:37:54;;;;;;;13.55;11.70;;;;;;;;;;6305064;22;20124;-80
2023/06/05 01:40:22;;;;;;;13.85;12.43;;;;;;;;;;6251656;22;20094;-80
2023/06/05 01:42:49;;;;;;;12.77;11.40;;;;;;;;;;6277338;22;20015;-80
2023/06/05 01:45:16;;;;;;;14.73;13.18;;;;;;;;;;6277038;22;20025;-80
2023/06/05 01:47:42;;;;;;;12.45;11.23;;;;;;;;;;6277448;22;20099;-80
2023/06/05 01:50:09;;;;;;;12.02;9.35;;;;;;;;;;6304964;22;20022;-80
2023/06/05 01:52:35;;;;;;;11.73;10.63;;;;;;;;;;6277498;22;20018;-81
2023/06/05 01:55:02;;;;;;;10.90;9.80;;;;;;;;;;6276863;22;20019;-80
2023/06/05 01:57:29;;;;;;;12.10;10.88;;;;;;;;;;6251848;22;20015;-80
2023/06/05 01:59:56;;;;;;;11.52;10.32;;;;;;;;;;6276718;22;20043;-80
2023/06/05 02:02:22;;;;;;;13.27;11.52;;;;;;;;;;6251390;22;20015;-80
2023/06/05 02:04:48;;;;;;;15.98;10.57;;;;;;;;;;6304357;22;20011;-80
2023/06/05 02:07:15;;;;;;;12.25;9.35;;;;;;;;;;6251580;22;20022;-80
2023/06/05 02:09:41;;;;;;;11.68;9.68;;;;;;;;;;6251625;22;20023;-80
2023/06/05 02:12:07;;;;;;;11.55;9.52;;;;;;;;;;6277121;22;20061;-80
2023/06/05 02:14:35;;;;;;;12.35;9.02;;;;;;;;;;6250921;22;20015;-80
2023/06/05 02:17:06;;;;;;;11.75;10.63;;;;;;;;;;6277727;22;20012;-80
2023/06/05 02:19:32;;;;;;;10.60;9.60;;;;;;;;;;6277127;22;20095;-80
2023/06/05 02:21:58;;;;;;;10.48;9.48;;;;;;;;;;6304894;22;20011;-80
2023/06/05 02:24:26;;;;;;;10.85;9.48;;;;;;;;;;6277262;22;20018;-80
2023/06/05 02:26:52;;;;;;;11.82;7.93;;;;;;;;;;6306924;22;20081;-80
2023/06/05 02:29:18;;;;;;;10.82;8.40;;;;;;;;;;6305940;22;20014;-80
2023/06/05 02:31:44;;;;;;;10.32;8.48;;;;;;;;;;6253692;22;20007;-80
2023/06/05 02:34:11;;;;;;;9.38;8.23;;;;;;;;;;6306483;22;20015;-80
2023/06/05 02:36:38;;;;;;;10.00;8.63;;;;;;;;;;6306817;22;20064;-80
2023/06/05 02:39:04;;;;;;;13.50;9.98;;;;;;;;;;6279067;22;20011;-80
2023/06/05 02:41:30;;;;;;;10.32;8.95;;;;;;;;;;6306756;22;20007;-81
2023/06/05 02:43:57;;;;;;;11.63;10.52;;;;;;;;;;6278574;22;20019;-80
2023/06/05 02:46:26;;;;;;;9.60;8.57;;;;;;;;;;6279162;22;20015;-80
2023/06/05 02:48:52;;;;;;;11.48;9.48;;;;;;;;;;6279415;22;20015;-80
2023/06/05 02:51:18;;;;;;;10.15;8.85;;;;;;;;;;6278837;22;20047;-80
2023/06/05 02:53:44;;;;;;;10.30;9.23;;;;;;;;;;6306313;22;20023;-79
2023/06/05 02:56:10;;;;;;;11.93;9.40;;;;;;;;;;6253442;22;20015;-80
2023/06/05 02:58:37;;;;;;;11.05;9.05;;;;;;;;;;6305987;22;20333;-80
2023/06/05 03:01:03;;;;;;;9.63;8.00;;;;;;;;;;6278742;22;20011;-80
2023/06/05 03:03:30;;;;;;;10.88;8.20;;;;;;;;;;6253647;22;20011;-80
2023/06/05 03:06:04;;;;;;;9.05;8.13;;;;;;;;;;6278747;22;20015;-80
2023/06/05 03:08:34;;;;;;;9.55;8.55;;;;;;;;;;6306465;22;20007;-80
2023/06/05 03:11:00;;;;;;;10.38;9.05;;;;;;;;;;6306436;22;20011;-80
2023/06/05 03:13:26;;;;;;;10.30;9.30;;;;;;;;;;6305416;22;20011;-80
2023/06/05 03:15:56;;;;;;;12.30;8.07;;;;;;;;;;6253049;22;20011;-80
2023/06/05 03:18:23;;;;;;;10.30;8.73;;;;;;;;;;6279267;22;20023;-80
2023/06/05 03:20:54;;;;;;;10.80;9.77;;;;;;;;;;6253280;22;20011;-80
2023/06/05 03:23:21;;;;;;;13.15;9.27;;;;;;;;;;6253226;22;20141;-80
2023/06/05 03:25:47;;;;;;;11.40;10.32;;;;;;;;;;6252934;22;20023;-80
2023/06/05 03:28:13;;;;;;;11.38;10.15;;;;;;;;;;6252499;22;20011;-80
2023/06/05 03:30:39;;;;;;;10.50;9.43;;;;;;;;;;6306341;22;20434;-80
2023/06/05 03:33:06;;;;;;;13.73;10.15;;;;;;;;;;6306496;22;20022;-80
2023/06/05 03:35:32;;;;;;;11.40;10.20;;;;;;;;;;6305938;22;20418;-80
2023/06/05 03:37:58;;;;;;;10.57;9.57;;;;;;;;;;6252349;22;20385;-80
2023/06/05 03:40:24;;;;;;;10.43;9.43;;;;;;;;;;6278337;22;20011;-80
2023/06/05 03:42:51;;;;;;;15.65;14.40;;;;;;;;;;6252255;22;20007;-80
2023/06/05 03:45:18;;;;;;;14.43;12.95;;;;;;;;;;6278428;22;20054;-80
2023/06/05 03:47:46;;;;;;;13.38;12.02;;;;;;;;;;6252997;22;20023;-80
2023/06/05 03:50:12;;;;;;;14.30;10.75;;;;;;;;;;6252860;22;20033;-80
2023/06/05 03:52:39;;;;;;;12.68;10.65;;;;;;;;;;6278608;22;20060;-80
2023/06/05 03:55:07;;;;;;;13.95;12.85;;;;;;;;;;6272979;22;20016;-80
2023/06/05 03:57:33;;;;;;;13.27;12.18;;;;;;;;;;6272690;22;20016;-80
2023/06/05 04:00:00;;;;;;;15.30;14.10;;;;;;;;;;6247607;22;20018;-80
2023/06/05 04:02:26;;;;;;;12.73;11.38;;;;;;;;;;6247723;22;20015;-80
2023/06/05 04:04:52;;;;;;;15.98;14.52;;;;;;;;;;6273214;22;20481;-80
2023/06/05 04:07:19;;;;;;;12.88;11.68;;;;;;;;;;6273543;22;20428;-80
2023/06/05 04:09:45;;;;;;;14.15;12.75;;;;;;;;;;6273246;22;20445;-80
2023/06/05 04:12:11;;;;;;;12.70;10.55;;;;;;;;;;6247082;22;20012;-80
2023/06/05 04:14:38;;;;;;;14.95;9.10;;;;;;;;;;6247939;22;20012;-80
2023/06/05 04:17:04;;;;;;;13.23;10.77;;;;;;;;;;6275042;22;20012;-80
2023/06/05 04:19:30;;;;;;;9.60;8.70;;;;;;;;;;6273008;22;20335;-81
2023/06/05 04:21:56;;;;;;;13.82;12.55;;;;;;;;;;6272955;22;20011;-80
2023/06/05 04:24:25;;;;;;;13.35;12.25;;;;;;;;;;6272925;22;20016;-80
2023/06/05 04:26:51;;;;;;;12.90;11.77;;;;;;;;;;6246809;22;20022;-80
2023/06/05 04:29:18;;;;;;;13.93;12.57;;;;;;;;;;6247365;22;20078;-80
2023/06/05 04:31:45;;;;;;;14.48;13.10;;;;;;;;;;6272942;22;20450;-80
2023/06/05 04:34:12;;;;;;;15.52;14.02;;;;;;;;;;6274240;22;20023;-80
2023/06/05 04:36:38;;;;;;;15.90;14.43;;;;;;;;;;6272820;22;20038;-80
2023/06/05 04:39:10;;;;;;;14.40;13.00;;;;;;;;;;6246879;22;20011;-81
2023/06/05 04:41:39;;;;;;;16.58;15.00;;;;;;;;;;6247318;22;20039;-80
2023/06/05 04:44:05;;;;;;;17.70;16.10;;;;;;;;;;6274922;22;20015;-80
2023/06/05 04:46:31;;;;;;;17.15;14.95;;;;;;;;;;6272824;22;20091;-80
2023/06/05 04:48:57;;;;;;;17.15;15.63;;;;;;;;;;6274452;22;20034;-81
2023/06/05 04:51:23;;;;;;;17.65;16.05;;;;;;;;;;6247017;22;20026;-80
2023/06/05 04:53:52;;;;;;;18.45;16.70;;;;;;;;;;6272087;22;20051;-80
2023/06/05 04:56:18;;;;;;;15.48;13.98;;;;;;;;;;6272531;22;20008;-80
2023/06/05 04:58:45;;;;;;;16.30;14.73;;;;;;;;;;6247093;22;20012;-81
2023/06/05 05:01:12;;;;;;;14.05;11.35;;;;;;;;;;6247040;22;20012;-80
2023/06/05 05:03:38;;;;;;;12.00;10.77;;;;;;;;;;6247111;22;20007;-80
2023/06/05 05:06:04;;;;;;;11.48;10.30;;;;;;;;;;6272314;22;20012;-80
2023/06/05 05:08:31;;;;;;;11.40;10.40;;;;;;;;;;6246377;22;20012;-80
2023/06/05 05:10:57;;;;;;;10.93;9.88;;;;;;;;;;6246813;22;20012;-80
2023/06/05 05:13:23;;;;;;;9.20;8.27;;;;;;;;;;6272491;22;20031;-80
2023/06/05 05:15:52;;;;;;;7.03;5.43;;;;;;;;;;6272352;22;20070;-81
2023/06/05 05:18:18;;;;;;;6.70;4.82;;;;;;;;;;6274111;22;20054;-80
2023/06/05 05:20:45;;;;;;;6.15;4.95;;;;;;;;;;6272372;22;20012;-80
2023/06/05 05:23:11;;;;;;;6.10;4.85;;;;;;;;;;6246410;22;20083;-81
2023/06/05 05:25:38;;;;;;;6.85;6.25;;;;;;;;;;6274322;22;20016;-81
2023/06/05 05:28:04;;;;;;;10.02;8.45;;;;;;;;;;6273965;22;20050;-81
2023/06/05 05:30:30;;;;;;;10.25;7.75;;;;;;;;;;6274003;22;20108;-81
2023/06/05 05:32:56;;;;;;;8.57;3.50;;;;;;;;;;6272559;22;20327;-81
2023/06/05 05:35:23;;;;;;;5.93;3.90;;;;;;;;;;6274233;22;20275;-81
2023/06/05 05:37:49;;;;;;;5.93;5.15;;;;;;;;;;6273359;22;20517;-80
2023/06/05 05:40:15;;;;;;;8.93;8.13;;;;;;;;;;6274114;22;20026;-81
2023/06/05 05:42:41;;;;;;;17.75;16.58;;;;;;;;;;6272095;22;20022;-81
2023/06/05 05:45:08;;;;;;;23.80;22.27;;;;;;;;;;6273852;22;20022;-81
2023/06/05 05:47:34;;;;;;;16.25;14.98;;;;;;;;;;6272442;22;20145;-81
2023/06/05 05:50:00;;;;;;;8.35;7.55;;;;;;;;;;6272309;22;20019;-81
2023/06/05 05:52:26;;;;;;;4.97;3.42;;;;;;;;;;6246275;22;20019;-81
2023/06/05 05:54:52;;;;;;;5.75;3.50;;;;;;;;;;6271956;22;20075;-81
2023/06/05 05:57:18;;;;;;;4.13;3.25;;;;;;;;;;6272198;22;20043;-81
2023/06/05 05:59:44;;;;;;;6.53;5.18;;;;;;;;;;6275304;22;20011;-81
2023/06/05 06:02:13;;;;;;;7.03;6.07;;;;;;;;;;6250303;22;20047;-81
2023/06/05 06:04:40;;;;;;;8.75;7.82;;;;;;;;;;6275725;22;20012;-80
2023/06/05 06:07:06;;;;;;;8.43;7.63;;;;;;;;;;6276892;22;20015;-80
2023/06/05 06:09:33;;;;;;;7.93;7.13;;;;;;;;;;6275615;22;20019;-80
2023/06/05 06:12:02;;;;;;;7.57;6.85;;;;;;;;;;6275645;22;20043;-81
2023/06/05 06:14:28;;;;;;;7.32;6.63;;;;;;;;;;6276013;22;20332;-80
2023/06/05 06:16:55;;;;;;;5.72;5.10;;;;;;;;;;6276003;22;20012;-80
2023/06/05 06:19:23;;;;;;;6.68;5.47;;;;;;;;;;6277589;22;20152;-80
2023/06/05 06:21:51;;;;;;;6.30;4.55;;;;;;;;;;6249387;22;20106;-81
2023/06/05 06:24:20;;;;;;;5.85;5.25;;;;;;;;;;6249736;22;20461;-80
2023/06/05 06:26:46;;;;;;;6.15;4.28;;;;;;;;;;6276898;22;20383;-80
2023/06/05 06:29:15;;;;;;;8.95;4.15;;;;;;;;;;6249196;22;20014;-80
2023/06/05 06:31:42;;;;;;;8.95;4.78;;;;;;;;;;6274641;22;20316;-81
2023/06/05 06:34:10;;;;;;;6.22;4.28;;;;;;;;;;6276815;22;20097;-81
2023/06/05 06:36:40;;;;;;;6.68;5.50;;;;;;;;;;6274179;22;20023;-81
2023/06/05 06:39:07;;;;;;;5.75;4.25;;;;;;;;;;6274737;22;20022;-81
2023/06/05 06:41:34;;;;;;;9.52;5.68;;;;;;;;;;6249358;22;20030;-80
2023/06/05 06:44:00;;;;;;;7.38;4.40;;;;;;;;;;6274643;22;20016;-81
2023/06/05 06:46:26;;;;;;;5.15;3.92;;;;;;;;;;6274574;22;20399;-80
2023/06/05 06:48:52;;;;;;;6.75;3.50;;;;;;;;;;6274927;22;20024;-80
2023/06/05 06:51:18;;;;;;;6.45;4.72;;;;;;;;;;6276333;22;20021;-80
2023/06/05 06:53:44;;;;;;;4.57;3.10;;;;;;;;;;6274492;22;20020;-80
2023/06/05 06:56:10;;;;;;;5.43;4.25;;;;;;;;;;6274703;22;20023;-81
2023/06/05 06:58:37;;;;;;;10.82;9.88;;;;;;;;;;6274782;22;20125;-81
2023/06/05 07:01:03;;;;;;;13.02;12.13;;;;;;;;;;6276801;22;20012;-80
2023/06/05 07:03:29;;;;;;;14.88;13.68;;;;;;;;;;6276800;22;20012;-80
2023/06/05 07:05:55;;;;;;;11.90;11.02;;;;;;;;;;6275968;22;20047;-81
2023/06/05 07:08:21;;;;;;;12.32;11.43;;;;;;;;;;6274599;22;20023;-80
2023/06/05 07:10:47;;;;;;;14.02;12.88;;;;;;;;;;6274239;22;20042;-80
2023/06/05 07:13:13;;;;;;;7.72;7.03;;;;;;;;;;6246961;22;20022;-81
2023/06/05 07:15:39;;;;;;;28.58;26.75;;;;;;;;;;6247568;22;20403;-81
2023/06/05 07:18:05;;;;;;;32.67;30.83;;;;;;;;;;6274580;22;20022;-80
2023/06/05 07:20:31;;;;;;;42.20;39.83;;;;;;;;;;6274421;22;20082;-81
2023/06/05 07:22:57;;;;;;;46.15;43.40;;;;;;;;;;6272643;22;20489;-81
2023/06/05 07:25:24;;;;;;;43.42;40.92;;;;;;;;;;6274524;22;20347;-81
2023/06/05 07:27:51;;;;;;;52.42;49.47;;;;;;;;;;6274961;22;20099;-81
2023/06/05 07:30:17;;;;;;;105.80;100.07;;;;;;;;;;6272831;22;20023;-81
2023/06/05 07:32:45;;;;;;;103.07;97.38;;;;;;;;;;6272962;22;20020;-81
2023/06/05 07:35:12;;;;;;;131.68;124.47;;;;;;;;;;6272142;22;20016;-81
2023/06/05 07:37:38;;;;;;;195.50;184.07;;;;;;;;;;6274652;22;20012;-81
2023/06/05 07:40:05;;;;;;;423.50;395.08;;;;;;;;;;6272793;22;20015;-81
2023/06/05 07:42:31;;;;;;;569.67;529.00;;;;;;;;;;6272545;22;20465;-82
2023/06/05 07:44:57;;;;;;;705.67;651.90;;;;;;;;;;6274651;22;20012;-81
2023/06/05 07:47:23;;;;;;;629.58;582.05;;;;;;;;;;6272764;22;20018;-81
2023/06/05 07:49:59;;;;;;;674.65;623.65;;;;;;;;;;6274059;22;20015;-81
2023/06/05 07:52:26;;;;;;;427.73;399.35;;;;;;;;;;6274451;22;20023;-81
2023/06/05 07:54:52;;;;;;;380.20;355.85;;;;;;;;;;6272290;22;20463;-81
2023/06/05 07:57:19;;;;;;;178.48;168.48;;;;;;;;;;6272653;22;20095;-81
2023/06/05 07:59:46;;;;;;;207.52;195.32;;;;;;;;;;6272507;22;20342;-81
2023/06/05 08:02:12;;;;;;;278.70;261.63;;;;;;;;;;6274648;22;20008;-81
2023/06/05 08:04:39;;;;;;;446.90;416.83;;;;;;;;;;6275311;22;20015;-81
2023/06/05 08:07:05;;;;;;;619.55;573.92;;;;;;;;;;6273121;22;20023;-81
2023/06/05 08:09:33;;;;;;;717.60;662.78;;;;;;;;;;6274499;22;20024;-81
2023/06/05 08:11:59;;;;;;;751.92;693.72;;;;;;;;;;6247726;22;20337;-81
2023/06/05 08:14:25;;;;;;;822.30;755.10;;;;;;;;;;6273132;22;20019;-81
2023/06/05 08:16:52;;;;;;;930.55;847.30;;;;;;;;;;6273028;22;20425;-81
2023/06/05 08:19:18;;;;;;;970.10;880.13;;;;;;;;;;6273510;22;20060;-81
2023/06/05 08:21:44;;;;;;;1011.97;912.70;;;;;;;;;;6275127;22;20082;-81
2023/06/05 08:24:10;;;;;;;1096.38;973.58;;;;;;;;;;6272893;22;20015;-81
2023/06/05 08:26:36;;;;;;;1062.75;953.05;;;;;;;;;;6274583;22;20293;-81
2023/06/05 08:29:02;;;;;;;1234.15;997.63;;;;;;;;;;6273034;22;20065;-81
2023/06/05 08:31:29;;;;;;;991.38;887.40;;;;;;;;;;6272677;22;20008;-81
2023/06/05 08:33:55;;;;;;;1198.25;996.33;;;;;;;;;;6274604;22;20439;-81
2023/06/05 08:36:23;;;;;;;1111.10;980.70;;;;;;;;;;6274929;22;20199;-81
2023/06/05 08:38:50;;;;;;;1242.45;999.90;;;;;;;;;;6272760;22;20462;-81
2023/06/05 08:41:16;;;;;;;1126.20;987.10;;;;;;;;;;6272800;22;20008;-81
2023/06/05 08:43:44;;;;;;;1260.43;999.67;;;;;;;;;;6273229;22;20020;-81
2023/06/05 08:46:11;;;;;;;1260.95;999.83;;;;;;;;;;6274168;22;20035;-82
2023/06/05 08:48:38;;;;;;;1259.78;999.90;;;;;;;;;;6273343;22;20008;-81
2023/06/05 08:51:05;;;;;;;1098.85;970.13;;;;;;;;;;6272916;22;20033;-81
2023/06/05 08:53:34;;;;;;;1225.20;998.45;;;;;;;;;;6275836;22;20020;-81
2023/06/05 08:56:00;;;;;;;1283.80;999.90;;;;;;;;;;6305565;22;20090;-81
2023/06/05 08:58:26;;;;;;;1255.53;997.90;;;;;;;;;;6278111;22;20014;-81
2023/06/05 09:00:53;;;;;;;1245.78;996.40;;;;;;;;;;6304543;22;20449;-81
2023/06/05 09:03:20;;;;;;;1090.80;974.22;;;;;;;;;;6278310;22;20014;-81
2023/06/05 09:05:47;;;;;;;1091.00;959.97;;;;;;;;;;6252226;22;20023;-81
2023/06/05 09:08:14;;;;;;;1061.97;949.85;;;;;;;;;;6305380;22;20015;-81
2023/06/05 09:10:40;;;;;;;1004.95;906.90;;;;;;;;;;6277575;22;20023;-81
2023/06/05 09:13:06;;;;;;;915.38;834.17;;;;;;;;;;6277550;22;20011;-81
2023/06/05 09:15:33;;;;;;;954.92;867.83;;;;;;;;;;6276849;22;20007;-81
2023/06/05 09:18:04;;;;;;;753.40;693.20;;;;;;;;;;6305469;22;20086;-81
2023/06/05 09:20:34;;;;;;;811.83;744.58;;;;;;;;;;6278076;22;20034;-81
2023/06/05 09:23:00;;;;;;;767.33;705.92;;;;;;;;;;6277597;22;20011;-81
2023/06/05 09:25:28;;;;;;;749.40;690.58;;;;;;;;;;6277710;22;20022;-81
2023/06/05 09:28:07;;;;;;;656.22;606.88;;;;;;;;;;6305157;22;20035;-81
2023/06/05 09:30:33;;;;;;;800.50;735.65;;;;;;;;;;6276948;22;20015;-81
2023/06/05 09:33:09;;;;;;;748.45;690.05;;;;;;;;;;6252038;22;20342;-81
2023/06/05 09:35:38;;;;;;;741.88;683.58;;;;;;;;;;6304425;22;20022;-81
2023/06/05 09:38:04;;;;;;;743.70;685.30;;;;;;;;;;6277403;22;20011;-81
2023/06/05 09:40:37;;;;;;;872.35;798.58;;;;;;;;;;6277313;22;20038;-81
2023/06/05 09:43:13;;;;;;;728.72;671.30;;;;;;;;;;6305134;22;20086;-81
2023/06/05 09:45:42;;;;;;;756.80;697.80;;;;;;;;;;6276760;22;20015;-81
2023/06/05 09:48:15;;;;;;;695.47;641.78;;;;;;;;;;6251913;22;20019;-81
2023/06/05 09:50:42;;;;;;;737.38;679.92;;;;;;;;;;6251724;22;20011;-81
2023/06/05 09:53:10;;;;;;;690.08;635.85;;;;;;;;;;6305101;22;20018;-81
2023/06/05 09:55:36;;;;;;;665.90;615.15;;;;;;;;;;6276919;22;20008;-81
2023/06/05 09:58:13;;;;;;;605.85;560.83;;;;;;;;;;6251567;22;20043;-81
2023/06/05 10:00:41;;;;;;;443.88;413.33;;;;;;;;;;6305130;22;20007;-81
2023/06/05 10:03:11;;;;;;;385.52;360.80;;;;;;;;;;6305225;22;20011;-81
2023/06/05 10:05:38;;;;;;;388.70;363.50;;;;;;;;;;6251803;22;20015;-81
2023/06/05 10:08:05;;;;;;;372.23;347.98;;;;;;;;;;6251648;22;20102;-80
2023/06/05 10:10:32;;;;;;;237.95;223.90;;;;;;;;;;6277249;22;20019;-81
2023/06/05 10:12:58;;;;;;;209.65;197.15;;;;;;;;;;6277336;22;20018;-81
2023/06/05 10:15:25;;;;;;;299.35;281.08;;;;;;;;;;6277584;22;20143;-80
2023/06/05 10:17:51;;;;;;;249.75;234.48;;;;;;;;;;6277555;22;20069;-81
2023/06/05 10:20:17;;;;;;;227.18;213.45;;;;;;;;;;6277259;22;20018;-81
2023/06/05 10:22:44;;;;;;;109.40;103.18;;;;;;;;;;6251984;22;20012;-81
2023/06/05 10:25:12;;;;;;;119.40;112.60;;;;;;;;;;6277267;22;20016;-81
2023/06/05 10:27:51;;;;;;;98.47;92.60;;;;;;;;;;6304282;22;20330;-81
2023/06/05 10:30:17;;;;;;;44.15;41.50;;;;;;;;;;6277378;22;20016;-81
2023/06/05 10:33:03;;;;;;;37.13;34.92;;;;;;;;;;6277318;22;20097;-80
2023/06/05 10:35:43;;;;;;;42.25;39.63;;;;;;;;;;6251552;22;20016;-81
2023/06/05 10:38:22;;;;;;;20.17;18.48;;;;;;;;;;6277622;22;20015;-81
2023/06/05 10:40:52;;;;;;;19.65;18.17;;;;;;;;;;6277281;22;20046;-81
2023/06/05 10:43:25;;;;;;;14.73;13.63;;;;;;;;;;6304272;22;20007;-81
2023/06/05 10:45:52;;;;;;;16.08;14.95;;;;;;;;;;6277479;22;20019;-81
2023/06/05 10:48:18;;;;;;;15.75;14.65;;;;;;;;;;6253529;22;20015;-81
2023/06/05 10:50:44;;;;;;;14.90;13.70;;;;;;;;;;6279486;22;20141;-81
2023/06/05 10:53:29;;;;;;;20.92;19.35;;;;;;;;;;6253800;22;20090;-81
2023/06/05 10:55:55;;;;;;;13.73;12.70;;;;;;;;;;6306924;22;20019;-81
2023/06/05 10:58:23;;;;;;;19.27;17.77;;;;;;;;;;6252919;22;20098;-81
2023/06/05 11:01:08;;;;;;;16.80;15.40;;;;;;;;;;6279364;22;20011;-81
2023/06/05 11:03:53;;;;;;;14.00;12.85;;;;;;;;;;6279433;22;20039;-81
2023/06/05 11:06:21;;;;;;;16.00;14.73;;;;;;;;;;6279382;22;20073;-81
2023/06/05 11:09:06;;;;;;;17.65;16.42;;;;;;;;;;6253268;22;20404;-80
2023/06/05 11:11:52;;;;;;;19.65;18.23;;;;;;;;;;6305974;22;20069;-81
2023/06/05 11:14:19;;;;;;;18.85;17.35;;;;;;;;;;6278559;22;20086;-81
2023/06/05 11:16:45;;;;;;;20.40;18.92;;;;;;;;;;6253215;22;20011;-81
2023/06/05 11:19:34;;;;;;;18.05;16.35;;;;;;;;;;6279319;22;20011;-81
2023/06/05 11:22:11;;;;;;;13.75;12.68;;;;;;;;;;6253336;22;20053;-81
2023/06/05 11:24:37;;;;;;;19.70;18.15;;;;;;;;;;6306400;22;20015;-81
2023/06/05 11:27:05;;;;;;;12.90;11.88;;;;;;;;;;6252513;22;20022;-81
2023/06/05 11:29:31;;;;;;;12.35;11.38;;;;;;;;;;6252954;22;20015;-81
2023/06/05 11:31:58;;;;;;;14.52;13.30;;;;;;;;;;6306209;22;20015;-81
2023/06/05 11:34:25;;;;;;;15.35;14.18;;;;;;;;;;6253218;22;20090;-80
2023/06/05 11:36:51;;;;;;;15.23;13.88;;;;;;;;;;6252954;22;20018;-81
2023/06/05 11:39:19;;;;;;;13.95;12.77;;;;;;;;;;6306177;22;20022;-81
2023/06/05 11:41:45;;;;;;;12.73;11.82;;;;;;;;;;6252439;22;20011;-81
2023/06/05 11:44:12;;;;;;;17.25;15.50;;;;;;;;;;6306128;22;20019;-81
2023/06/05 11:46:38;;;;;;;14.77;13.68;;;;;;;;;;6278864;22;20084;-81
2023/06/05 11:49:04;;;;;;;16.92;15.68;;;;;;;;;;6279031;22;20042;-81
2023/06/05 11:51:37;;;;;;;20.08;18.58;;;;;;;;;;6278433;22;20053;-81
2023/06/05 11:54:05;;;;;;;22.98;21.35;;;;;;;;;;6278044;22;20015;-81
2023/06/05 11:56:32;;;;;;;16.45;15.10;;;;;;;;;;6306031;22;20018;-80
2023/06/05 11:58:58;;;;;;;29.25;27.27;;;;;;;;;;6278333;22;20015;-81
2023/06/05 12:01:31;;;;;;;36.95;34.70;;;;;;;;;;6278391;22;20008;-81
2023/06/05 12:04:04;;;;;;;32.80;30.80;;;;;;;;;;6305885;22;20430;-81
2023/06/05 12:06:30;;;;;;;84.55;79.57;;;;;;;;;;6252826;22;20286;-81
2023/06/05 12:09:10;;;;;;;94.38;88.93;;;;;;;;;;6305472;22;20011;-81
2023/06/05 12:11:37;;;;;;;119.68;112.53;;;;;;;;;;6252506;22;20011;-81
2023/06/05 12:14:04;;;;;;;133.80;126.07;;;;;;;;;;6277414;22;20012;-80
2023/06/05 12:16:34;;;;;;;156.98;147.68;;;;;;;;;;6277777;22;20007;-81
2023/06/05 12:19:00;;;;;;;233.40;219.52;;;;;;;;;;6252146;22;20102;-81
2023/06/05 12:21:27;;;;;;;169.82;159.32;;;;;;;;;;6277825;22;20011;-81
2023/06/05 12:24:01;;;;;;;169.80;158.93;;;;;;;;;;6276844;22;20011;-81
2023/06/05 12:26:32;;;;;;;188.38;177.30;;;;;;;;;;6251901;22;20057;-81
2023/06/05 12:29:07;;;;;;;203.40;190.05;;;;;;;;;;6277998;22;20011;-81
2023/06/05 12:31:39;;;;;;;162.13;152.27;;;;;;;;;;6277464;22;20011;-81
2023/06/05 12:34:05;;;;;;;139.38;131.38;;;;;;;;;;6277243;22;20015;-81
2023/06/05 12:36:32;;;;;;;119.28;112.03;;;;;;;;;;6277661;22;20117;-81
2023/06/05 12:39:03;;;;;;;137.32;129.38;;;;;;;;;;6276634;22;20015;-80
2023/06/05 12:41:29;;;;;;;169.65;159.88;;;;;;;;;;6305079;22;20078;-81
2023/06/05 12:44:00;;;;;;;170.20;160.30;;;;;;;;;;6251530;22;20062;-81
2023/06/05 12:46:26;;;;;;;159.90;150.10;;;;;;;;;;6251470;22;20007;-81
2023/06/05 12:48:52;;;;;;;76.13;71.65;;;;;;;;;;6304886;22;20046;-81
2023/06/05 12:51:18;;;;;;;54.63;51.35;;;;;;;;;;6251587;22;20040;-81
2023/06/05 12:53:44;;;;;;;62.60;58.88;;;;;;;;;;6276518;22;20027;-81
2023/06/05 12:56:11;;;;;;;45.40;42.38;;;;;;;;;;6251478;22;20064;-81
2023/06/05 12:58:37;;;;;;;33.88;31.45;;;;;;;;;;6277168;22;20011;-81
2023/06/05 13:01:04;;;;;;;33.25;30.85;;;;;;;;;;6277229;22;20038;-81
2023/06/05 13:03:30;;;;;;;30.40;28.48;;;;;;;;;;6277330;22;20101;-80
2023/06/05 13:05:56;;;;;;;33.45;31.40;;;;;;;;;;6304806;22;20034;-81
2023/06/05 13:08:22;;;;;;;33.03;30.95;;;;;;;;;;6250674;22;20368;-81
2023/06/05 13:10:48;;;;;;;50.35;47.28;;;;;;;;;;6276650;22;20011;-81
2023/06/05 13:13:16;;;;;;;58.38;54.85;;;;;;;;;;6251575;22;20007;-81
2023/06/05 13:15:42;;;;;;;36.08;33.85;;;;;;;;;;6276790;22;20029;-81
2023/06/05 13:18:09;;;;;;;48.28;45.33;;;;;;;;;;6277008;22;20138;-81
2023/06/05 13:20:35;;;;;;;48.53;45.72;;;;;;;;;;6304817;22;20091;-81
2023/06/05 13:23:01;;;;;;;62.38;58.67;;;;;;;;;;6276350;22;20062;-81
2023/06/05 13:25:27;;;;;;;63.10;59.38;;;;;;;;;;6276705;22;20046;-81
2023/06/05 13:27:53;;;;;;;54.58;51.45;;;;;;;;;;6276845;22;20027;-81
2023/06/05 13:30:19;;;;;;;34.88;32.60;;;;;;;;;;6251323;22;20514;-81
2023/06/05 13:32:45;;;;;;;34.22;32.10;;;;;;;;;;6251340;22;20026;-81
2023/06/05 13:35:11;;;;;;;27.25;25.30;;;;;;;;;;6304572;22;20047;-80
2023/06/05 13:37:38;;;;;;;31.50;29.45;;;;;;;;;;6303987;22;20074;-81
2023/06/05 13:40:06;;;;;;;29.77;27.90;;;;;;;;;;6276795;22;20449;-81
2023/06/05 13:42:33;;;;;;;25.90;24.30;;;;;;;;;;6276906;22;20440;-81
2023/06/05 13:44:59;;;;;;;29.92;28.13;;;;;;;;;;6304603;22;20035;-81
2023/06/05 13:47:25;;;;;;;26.55;24.55;;;;;;;;;;6251205;22;20011;-81
2023/06/05 13:49:53;;;;;;;37.47;35.08;;;;;;;;;;6251368;22;20450;-81
2023/06/05 13:52:19;;;;;;;21.55;20.08;;;;;;;;;;6303586;22;20015;-80
2023/06/05 13:54:45;;;;;;;24.73;23.10;;;;;;;;;;6276401;22;20380;-81
2023/06/05 13:57:12;;;;;;;23.73;21.95;;;;;;;;;;6304600;22;20011;-81
2023/06/05 13:59:38;;;;;;;21.13;19.70;;;;;;;;;;6251217;22;20011;-81
2023/06/05 14:02:04;;;;;;;25.80;23.92;;;;;;;;;;6276641;22;20014;-81
2023/06/05 14:04:30;;;;;;;52.95;49.83;;;;;;;;;;6277262;22;20015;-81
2023/06/05 14:06:58;;;;;;;42.05;39.42;;;;;;;;;;6303417;22;20019;-82
2023/06/05 14:09:24;;;;;;;37.65;35.20;;;;;;;;;;6304500;22;20022;-81
2023/06/05 14:11:50;;;;;;;34.30;32.10;;;;;;;;;;6276683;22;20012;-80
2023/06/05 14:14:16;;;;;;;27.63;25.67;;;;;;;;;;6276603;22;20011;-81
2023/06/05 14:16:42;;;;;;;28.38;25.98;;;;;;;;;;6251293;22;20019;-81